No particular awareness of the weather is required.    There are no Weather-warnings


Meteo18 Weather Cam more information Meteo18 Weather Cam


Thunder radar more information blitzortung!


Rain radar more information rain snow radar


Visit our other weather sites:

Template documentation
and downloads

And another site



Weather Underground History page Text

Daily Summary for August 25, 2016 Units:  Metric    English   Both
« Previous Day
Next Day »
Daily Weekly Monthly Yearly Custom
  High: Low: Average:
Temperature: 35.9 °C 18.8 °C 26.7 °C
Dew Point: 17.7 °C 12.5 °C 15.6 °C
Humidity: 83 % 25 % 55 %
Wind Speed: 17.7 km/h 0.0 km/h 3 km/h
Wind Gust: 22.5 km/h - -
Wind:- - WSW
Pressure: 1016.1 hPa 1012.8 hPa -
Precipitation: 0.0 mm    
Historical Graphs
 
 
Tabular Data for August 25, 2016
Time Temperature Dew Point Pressure Wind Wind Speed Wind Gust Humidity Rainfall Rate (Hourly)
00:02 23.5 °C 15.5 °C 1015.8 hPa Calm     61 % 0.0 mm
00:07 23.3 °C 15.9 °C 1015.8 hPa Calm     63 % 0.0 mm
00:12 23.2 °C 15.8 °C 1016.1 hPa Calm     63 % 0.0 mm
00:17 23.1 °C 15.7 °C 1016.1 hPa Calm     63 % 0.0 mm
00:22 23.1 °C 15.7 °C 1016.1 hPa Calm     63 % 0.0 mm
00:27 23.4 °C 15.7 °C 1016.1 hPa Calm     62 % 0.0 mm
00:32 23.0 °C 15.3 °C 1016.1 hPa Calm     62 % 0.0 mm
00:37 22.6 °C 15.7 °C 1016.1 hPa Calm     65 % 0.0 mm
00:42 22.3 °C 15.6 °C 1016.1 hPa Calm     66 % 0.0 mm
00:52 23.2 °C 16.0 °C 1015.8 hPa Calm     64 % 0.0 mm
00:57 23.4 °C 16.0 °C 1015.8 hPa Calm     63 % 0.0 mm
01:02 23.3 °C 16.1 °C 1015.8 hPa Calm     64 % 0.0 mm
01:12 22.4 °C 15.7 °C 1015.8 hPa Calm     66 % 0.0 mm
01:17 22.0 °C 15.6 °C 1015.8 hPa Calm     67 % 0.0 mm
01:22 21.8 °C 15.9 °C 1015.8 hPa Calm     69 % 0.0 mm
01:32 22.3 °C 16.1 °C 1015.8 hPa Calm     68 % 0.0 mm
01:37 22.1 °C 15.9 °C 1015.8 hPa Calm     68 % 0.0 mm
01:42 21.8 °C 16.3 °C 1015.8 hPa Calm     71 % 0.0 mm
01:47 21.8 °C 16.1 °C 1015.8 hPa Calm     70 % 0.0 mm
01:52 22.1 °C 16.4 °C 1015.8 hPa Calm     70 % 0.0 mm
01:57 21.8 °C 15.9 °C 1015.5 hPa Calm     69 % 0.0 mm
02:07 21.4 °C 15.7 °C 1015.5 hPa Calm     70 % 0.0 mm
02:12 21.2 °C 16.2 °C 1015.5 hPa Calm     73 % 0.0 mm
02:17 21.2 °C 15.9 °C 1015.5 hPa Calm     72 % 0.0 mm
02:22 21.5 °C 16.2 °C 1015.5 hPa Calm     72 % 0.0 mm
02:32 20.9 °C 15.7 °C 1015.5 hPa Calm     72 % 0.0 mm
02:37 21.0 °C 16.0 °C 1015.5 hPa Calm     73 % 0.0 mm
02:42 21.3 °C 16.0 °C 1015.1 hPa Calm     72 % 0.0 mm
02:47 21.4 °C 15.9 °C 1015.1 hPa Calm     71 % 0.0 mm
02:52 21.3 °C 16.0 °C 1015.1 hPa Calm     72 % 0.0 mm
03:02 21.7 °C 16.0 °C 1015.1 hPa Calm     70 % 0.0 mm
03:07 21.4 °C 15.9 °C 1015.1 hPa Calm     71 % 0.0 mm
03:12 21.4 °C 15.9 °C 1015.1 hPa Calm     71 % 0.0 mm
03:17 21.2 °C 15.7 °C 1015.1 hPa Calm     71 % 0.0 mm
03:22 20.8 °C 16.0 °C 1015.1 hPa Calm     74 % 0.0 mm
03:27 20.9 °C 15.9 °C 1015.1 hPa Calm     73 % 0.0 mm
03:32 21.1 °C 15.9 °C 1015.1 hPa Calm     72 % 0.0 mm
03:42 20.6 °C 15.8 °C 1015.1 hPa Calm     74 % 0.0 mm
03:47 20.4 °C 15.6 °C 1015.1 hPa Calm     74 % 0.0 mm
03:52 20.1 °C 15.5 °C 1015.1 hPa Calm     75 % 0.0 mm
04:02 19.9 °C 15.7 °C 1015.1 hPa WNW 1.6 km/h 4.8 km/h 77 % 0.0 mm
04:07 19.8 °C 15.2 °C 1015.1 hPa WNW 1.6 km/h 4.8 km/h 75 % 0.0 mm
04:12 19.8 °C 15.7 °C 1015.1 hPa Calm   4.8 km/h 77 % 0.0 mm
04:17 19.6 °C 15.5 °C 1015.1 hPa WNW 1.6 km/h 4.8 km/h 77 % 0.0 mm
04:22 19.6 °C 15.7 °C 1015.1 hPa WNW 1.6 km/h 4.8 km/h 78 % 0.0 mm
04:27 19.6 °C 15.7 °C 1015.1 hPa Calm   4.8 km/h 78 % 0.0 mm
04:32 19.8 °C 15.7 °C 1015.1 hPa Calm   4.8 km/h 77 % 0.0 mm
04:37 19.9 °C 15.7 °C 1015.1 hPa WNW 1.6 km/h 3.2 km/h 77 % 0.0 mm
04:42 19.8 °C 15.9 °C 1015.1 hPa Calm   3.2 km/h 78 % 0.0 mm
04:47 20.1 °C 15.7 °C 1015.1 hPa WNW 3.2 km/h 3.2 km/h 76 % 0.0 mm
04:52 20.1 °C 15.9 °C 1015.1 hPa Calm   3.2 km/h 77 % 0.0 mm
04:57 20.2 °C 16.0 °C 1014.8 hPa Calm   3.2 km/h 77 % 0.0 mm
05:02 20.4 °C 15.6 °C 1015.1 hPa Calm   3.2 km/h 74 % 0.0 mm
05:07 20.1 °C 15.7 °C 1014.8 hPa Calm   1.6 km/h 76 % 0.0 mm
05:12 20.0 °C 15.8 °C 1015.1 hPa WNW 1.6 km/h 1.6 km/h 77 % 0.0 mm
05:17 19.7 °C 15.6 °C 1015.1 hPa WNW 1.6 km/h 3.2 km/h 77 % 0.0 mm
05:42 19.7 °C 15.8 °C 1015.1 hPa Calm   1.6 km/h 78 % 0.0 mm
05:47 19.9 °C 15.9 °C 1015.1 hPa Calm   1.6 km/h 78 % 0.0 mm
05:52 19.8 °C 16.1 °C 1015.1 hPa Calm   1.6 km/h 79 % 0.0 mm
05:57 19.9 °C 15.9 °C 1015.1 hPa Calm     78 % 0.0 mm
06:02 20.2 °C 16.0 °C 1015.1 hPa Calm     77 % 0.0 mm
06:07 20.2 °C 15.8 °C 1015.1 hPa Calm   4.8 km/h 76 % 0.0 mm
06:12 20.0 °C 15.8 °C 1015.1 hPa Calm   4.8 km/h 77 % 0.0 mm
06:17 19.8 °C 15.9 °C 1015.1 hPa Calm   1.6 km/h 78 % 0.0 mm
06:22 19.9 °C 15.9 °C 1015.1 hPa Calm   1.6 km/h 78 % 0.0 mm
06:32 19.7 °C 15.8 °C 1015.1 hPa Calm     78 % 0.0 mm
06:42 18.9 °C 15.9 °C 1015.1 hPa NW 1.6 km/h 1.6 km/h 83 % 0.0 mm
06:47 19.2 °C 16.1 °C 1015.1 hPa Calm   3.2 km/h 82 % 0.0 mm
06:52 19.4 °C 16.1 °C 1015.1 hPa Calm   3.2 km/h 81 % 0.0 mm
06:57 19.3 °C 15.8 °C 1015.1 hPa Calm   1.6 km/h 80 % 0.0 mm
07:02 19.0 °C 15.7 °C 1015.1 hPa Calm   1.6 km/h 81 % 0.0 mm
07:07 19.1 °C 16.0 °C 1015.1 hPa Calm   1.6 km/h 82 % 0.0 mm
07:12 19.1 °C 15.6 °C 1015.1 hPa Calm   1.6 km/h 80 % 0.0 mm
07:17 18.8 °C 15.5 °C 1015.1 hPa WNW 1.6 km/h 1.6 km/h 81 % 0.0 mm
07:22 18.8 °C 15.7 °C 1015.1 hPa WNW 1.6 km/h 1.6 km/h 82 % 0.0 mm
07:32 19.2 °C 15.9 °C 1015.1 hPa Calm   3.2 km/h 81 % 0.0 mm
07:37 19.5 °C 16.3 °C 1015.1 hPa Calm   1.6 km/h 82 % 0.0 mm
07:42 19.9 °C 16.3 °C 1015.5 hPa Calm   1.6 km/h 80 % 0.0 mm
07:52 20.3 °C 16.3 °C 1015.1 hPa Calm   1.6 km/h 78 % 0.0 mm
07:57 20.7 °C 16.5 °C 1015.1 hPa Calm     77 % 0.0 mm
08:02 20.9 °C 16.5 °C 1015.1 hPa Calm     76 % 0.0 mm
08:07 21.2 °C 16.6 °C 1015.5 hPa Calm     75 % 0.0 mm
08:12 21.3 °C 16.7 °C 1015.1 hPa SSW 1.6 km/h   75 % 0.0 mm
08:17 21.4 °C 16.8 °C 1015.5 hPa SW 3.2 km/h 3.2 km/h 75 % 0.0 mm
08:22 21.3 °C 16.7 °C 1015.5 hPa Calm   1.6 km/h 75 % 0.0 mm
08:32 21.4 °C 16.8 °C 1015.5 hPa SSW 3.2 km/h 3.2 km/h 75 % 0.0 mm
08:37 21.4 °C 16.8 °C 1015.5 hPa SW 1.6 km/h 6.4 km/h 75 % 0.0 mm
08:42 21.6 °C 16.8 °C 1015.5 hPa SSW 1.6 km/h 6.4 km/h 74 % 0.0 mm
08:47 21.7 °C 16.9 °C 1015.5 hPa Calm   6.4 km/h 74 % 0.0 mm
08:52 21.7 °C 16.9 °C 1015.5 hPa SW 1.6 km/h 6.4 km/h 74 % 0.0 mm
09:02 22.0 °C 16.9 °C 1015.5 hPa SW 3.2 km/h 8.0 km/h 73 % 0.0 mm
09:07 22.2 °C 16.9 °C 1015.5 hPa SSW 3.2 km/h 8.0 km/h 72 % 0.0 mm
09:12 22.4 °C 17.1 °C 1015.5 hPa SW 1.6 km/h 8.0 km/h 72 % 0.0 mm
09:17 22.5 °C 17.0 °C 1015.5 hPa SSW 1.6 km/h 6.4 km/h 71 % 0.0 mm
09:22 22.6 °C 17.1 °C 1015.5 hPa SSW 3.2 km/h 6.4 km/h 71 % 0.0 mm
09:32 22.8 °C 17.0 °C 1015.5 hPa SSW 4.8 km/h 8.0 km/h 70 % 0.0 mm
09:42 23.4 °C 17.4 °C 1015.5 hPa SW 3.2 km/h 8.0 km/h 69 % 0.0 mm
09:52 23.9 °C 17.4 °C 1015.5 hPa SSW 1.6 km/h 6.4 km/h 67 % 0.0 mm
10:02 24.6 °C 17.6 °C 1015.5 hPa SSW 3.2 km/h 9.7 km/h 65 % 0.0 mm
10:07 24.9 °C 17.6 °C 1015.5 hPa WSW 4.8 km/h 9.7 km/h 64 % 0.0 mm
10:17 25.4 °C 17.6 °C 1015.5 hPa SSW 1.6 km/h 11.3 km/h 62 % 0.0 mm
10:22 25.8 °C 17.7 °C 1015.5 hPa SSW 9.7 km/h 11.3 km/h 61 % 0.0 mm
10:42 27.3 °C 17.5 °C 1015.5 hPa South 6.4 km/h 12.9 km/h 55 % 0.0 mm
10:52 27.8 °C 17.0 °C 1015.5 hPa SW 4.8 km/h 11.3 km/h 52 % 0.0 mm
11:02 28.4 °C 16.7 °C 1015.5 hPa West 4.8 km/h 11.3 km/h 49 % 0.0 mm
11:07 28.7 °C 16.9 °C 1015.5 hPa WSW 6.4 km/h 9.7 km/h 49 % 0.0 mm
11:12 29.0 °C 16.9 °C 1015.5 hPa WSW 8.0 km/h 9.7 km/h 48 % 0.0 mm
11:17 29.3 °C 16.5 °C 1015.5 hPa SSW 8.0 km/h 9.7 km/h 46 % 0.0 mm
11:22 29.3 °C 16.8 °C 1015.5 hPa WSW 6.4 km/h 9.7 km/h 47 % 0.0 mm
11:37 29.9 °C 16.3 °C 1015.5 hPa WSW 3.2 km/h 14.5 km/h 44 % 0.0 mm
11:42 30.3 °C 16.3 °C 1015.5 hPa SW 3.2 km/h 14.5 km/h 43 % 0.0 mm
11:47 30.7 °C 16.7 °C 1015.5 hPa West 4.8 km/h 11.3 km/h 43 % 0.0 mm
11:52 30.8 °C 16.4 °C 1015.5 hPa West 9.7 km/h 11.3 km/h 42 % 0.0 mm
11:57 30.8 °C 16.4 °C 1015.5 hPa WSW 8.0 km/h 11.3 km/h 42 % 0.0 mm
12:02 30.8 °C 16.4 °C 1015.1 hPa West 6.4 km/h 11.3 km/h 42 % 0.0 mm
12:12 31.0 °C 16.2 °C 1015.1 hPa WSW 1.6 km/h 12.9 km/h 41 % 0.0 mm
12:17 31.3 °C 16.1 °C 1015.1 hPa West 6.4 km/h 14.5 km/h 40 % 0.0 mm
12:22 31.5 °C 16.7 °C 1015.1 hPa WSW 6.4 km/h 16.1 km/h 41 % 0.0 mm
12:32 31.8 °C 16.1 °C 1015.1 hPa SSW 9.7 km/h 19.3 km/h 39 % 0.0 mm
12:37 31.7 °C 16.0 °C 1015.1 hPa South 9.7 km/h 19.3 km/h 39 % 0.0 mm
12:42 32.0 °C 16.7 °C 1015.1 hPa WNW 4.8 km/h 19.3 km/h 40 % 0.0 mm
12:47 31.9 °C 16.2 °C 1015.1 hPa SW 9.7 km/h 17.7 km/h 39 % 0.0 mm
12:52 31.8 °C 16.1 °C 1015.1 hPa SW 9.7 km/h 17.7 km/h 39 % 0.0 mm
12:57 32.2 °C 16.5 °C 1015.1 hPa SSW 6.4 km/h 17.7 km/h 39 % 0.0 mm
13:02 32.3 °C 16.2 °C 1015.1 hPa SW 9.7 km/h 17.7 km/h 38 % 0.0 mm
13:12 32.2 °C 15.7 °C 1015.1 hPa West 12.9 km/h 17.7 km/h 37 % 0.0 mm
13:22 32.4 °C 15.8 °C 1015.1 hPa WSW 6.4 km/h 20.9 km/h 37 % 0.0 mm
13:27 32.4 °C 15.4 °C 1015.1 hPa West 4.8 km/h 20.9 km/h 36 % 0.0 mm
13:32 32.7 °C 16.1 °C 1014.8 hPa SW 12.9 km/h 20.9 km/h 37 % 0.0 mm
13:42 33.1 °C 16.0 °C 1014.8 hPa SW 12.9 km/h 19.3 km/h 36 % 0.0 mm
13:52 33.7 °C 15.7 °C 1014.8 hPa SW 17.7 km/h 19.3 km/h 34 % 0.0 mm
13:57 33.7 °C 15.2 °C 1014.8 hPa SW 12.9 km/h 17.7 km/h 33 % 0.0 mm
14:12 33.8 °C 14.8 °C 1014.8 hPa WSW 14.5 km/h 17.7 km/h 32 % 0.0 mm
14:17 33.8 °C 14.8 °C 1014.8 hPa WSW 3.2 km/h 16.1 km/h 32 % 0.0 mm
14:22 34.2 °C 14.7 °C 1014.8 hPa WSW 8.0 km/h 16.1 km/h 31 % 0.0 mm
14:32 34.1 °C 14.6 °C 1014.4 hPa SW 6.4 km/h 14.5 km/h 31 % 0.0 mm
14:37 34.2 °C 14.7 °C 1014.4 hPa SW 11.3 km/h 17.7 km/h 31 % 0.0 mm
14:42 34.4 °C 14.8 °C 1014.4 hPa South 3.2 km/h 17.7 km/h 31 % 0.0 mm
14:52 34.4 °C 14.3 °C 1014.4 hPa SW 8.0 km/h 17.7 km/h 30 % 0.0 mm
14:57 34.7 °C 14.6 °C 1014.4 hPa WSW 6.4 km/h 16.1 km/h 30 % 0.0 mm
15:02 34.8 °C 13.6 °C 1014.4 hPa WSW 12.9 km/h 16.1 km/h 28 % 0.0 mm
15:12 34.6 °C 14.5 °C 1014.4 hPa South 3.2 km/h 17.7 km/h 30 % 0.0 mm
15:17 34.9 °C 13.7 °C 1014.4 hPa SSW 11.3 km/h 17.7 km/h 28 % 0.0 mm
15:22 34.8 °C 14.1 °C 1014.4 hPa SE 8.0 km/h 17.7 km/h 29 % 0.0 mm
15:32 34.7 °C 14.6 °C 1014.1 hPa WSW 3.2 km/h 19.3 km/h 30 % 0.0 mm
15:42 34.8 °C 13.6 °C 1014.1 hPa South 8.0 km/h 19.3 km/h 28 % 0.0 mm
15:52 35.1 °C 14.4 °C 1014.1 hPa SW 11.3 km/h 17.7 km/h 29 % 0.0 mm
16:02 35.1 °C 13.9 °C 1014.1 hPa West 1.6 km/h 16.1 km/h 28 % 0.0 mm
16:12 35.0 °C 13.8 °C 1013.8 hPa SE 1.6 km/h 16.1 km/h 28 % 0.0 mm
16:17 35.2 °C 13.9 °C 1014.1 hPa West 8.0 km/h 16.1 km/h 28 % 0.0 mm
16:22 35.5 °C 14.2 °C 1013.8 hPa SSW 4.8 km/h 16.1 km/h 28 % 0.0 mm
16:32 35.5 °C 13.6 °C 1013.8 hPa SW 9.7 km/h 16.1 km/h 27 % 0.0 mm
16:42 35.3 °C 13.5 °C 1013.8 hPa South 8.0 km/h 22.5 km/h 27 % 0.0 mm
16:47 35.2 °C 13.4 °C 1013.8 hPa WSW 9.7 km/h 20.9 km/h 27 % 0.0 mm
16:52 35.4 °C 13.5 °C 1013.8 hPa West 6.4 km/h 20.9 km/h 27 % 0.0 mm
17:02 35.8 °C 13.9 °C 1013.8 hPa WSW 8.0 km/h 20.9 km/h 27 % 0.0 mm
17:07 35.6 °C 12.5 °C 1013.4 hPa SSW 11.3 km/h 16.1 km/h 25 % 0.0 mm
17:12 35.4 °C 13.5 °C 1013.4 hPa SW 6.4 km/h 16.1 km/h 27 % 0.0 mm
17:17 35.5 °C 13.1 °C 1013.4 hPa SW 11.3 km/h 20.9 km/h 26 % 0.0 mm
17:22 35.3 °C 13.5 °C 1013.4 hPa WSW 9.7 km/h 20.9 km/h 27 % 0.0 mm
17:42 35.7 °C 13.2 °C 1013.1 hPa SSE 9.7 km/h 17.7 km/h 26 % 0.0 mm
17:47 35.8 °C 13.3 °C 1013.1 hPa SSW 9.7 km/h 17.7 km/h 26 % 0.0 mm
17:52 35.9 °C 13.4 °C 1013.1 hPa WSW 4.8 km/h 17.7 km/h 26 % 0.0 mm
17:57 35.8 °C 13.3 °C 1013.1 hPa SW 6.4 km/h 16.1 km/h 26 % 0.0 mm
18:02 35.7 °C 13.8 °C 1013.1 hPa SE 4.8 km/h 16.1 km/h 27 % 0.0 mm
18:07 35.8 °C 13.9 °C 1013.1 hPa SSE 3.2 km/h 14.5 km/h 27 % 0.0 mm
18:12 35.8 °C 13.9 °C 1013.1 hPa WSW 1.6 km/h 14.5 km/h 27 % 0.0 mm
18:17 35.9 °C 13.4 °C 1013.1 hPa West 3.2 km/h 14.5 km/h 26 % 0.0 mm
18:22 35.8 °C 13.3 °C 1013.1 hPa WSW 9.7 km/h 9.7 km/h 26 % 0.0 mm
18:42 35.5 °C 13.6 °C 1013.1 hPa SW 8.0 km/h 14.5 km/h 27 % 0.0 mm
18:52 35.5 °C 13.1 °C 1013.1 hPa WSW 4.8 km/h 14.5 km/h 26 % 0.0 mm
19:02 35.4 °C 13.5 °C 1012.8 hPa West 3.2 km/h 12.9 km/h 27 % 0.0 mm
19:07 35.4 °C 13.0 °C 1013.1 hPa West 3.2 km/h 14.5 km/h 26 % 0.0 mm
19:12 35.3 °C 12.9 °C 1013.1 hPa SSW 3.2 km/h 14.5 km/h 26 % 0.0 mm
19:17 35.2 °C 12.8 °C 1013.1 hPa WSW 4.8 km/h 9.7 km/h 26 % 0.0 mm
19:22 35.2 °C 13.4 °C 1013.1 hPa West 1.6 km/h 9.7 km/h 27 % 0.0 mm
19:32 35.2 °C 13.4 °C 1013.1 hPa WNW 6.4 km/h 11.3 km/h 27 % 0.0 mm
19:37 35.1 °C 14.4 °C 1013.1 hPa WNW 3.2 km/h 9.7 km/h 29 % 0.0 mm
19:42 34.8 °C 14.7 °C 1013.1 hPa NW 6.4 km/h 9.7 km/h 30 % 0.0 mm
19:47 34.6 °C 15.0 °C 1013.1 hPa WNW 4.8 km/h 9.7 km/h 31 % 0.0 mm
19:57 34.2 °C 15.1 °C 1013.1 hPa WNW 4.8 km/h 8.0 km/h 32 % 0.0 mm
20:02 34.0 °C 15.5 °C 1013.1 hPa Calm   8.0 km/h 33 % 0.0 mm
20:12 33.7 °C 15.2 °C 1013.1 hPa WNW 1.6 km/h 6.4 km/h 33 % 0.0 mm
20:22 32.6 °C 15.1 °C 1013.1 hPa West 1.6 km/h 4.8 km/h 35 % 0.0 mm
20:32 31.5 °C 15.0 °C 1013.1 hPa WNW 1.6 km/h 6.4 km/h 37 % 0.0 mm
20:42 30.6 °C 15.1 °C 1013.1 hPa WNW 1.6 km/h 6.4 km/h 39 % 0.0 mm
20:47 30.2 °C 15.1 °C 1013.1 hPa Calm   4.8 km/h 40 % 0.0 mm
20:52 29.9 °C 15.6 °C 1013.1 hPa NNE 3.2 km/h 4.8 km/h 42 % 0.0 mm
20:57 29.6 °C 15.7 °C 1013.1 hPa NNE 1.6 km/h 3.2 km/h 43 % 0.0 mm
21:02 29.3 °C 15.8 °C 1013.4 hPa Calm   3.2 km/h 44 % 0.0 mm
21:07 29.1 °C 15.6 °C 1013.4 hPa Calm   3.2 km/h 44 % 0.0 mm
21:12 28.8 °C 15.7 °C 1013.4 hPa Calm   3.2 km/h 45 % 0.0 mm
21:17 28.7 °C 15.9 °C 1013.4 hPa Calm   3.2 km/h 46 % 0.0 mm
21:22 28.6 °C 15.8 °C 1013.4 hPa North 3.2 km/h 3.2 km/h 46 % 0.0 mm
21:32 28.3 °C 15.9 °C 1013.4 hPa North 3.2 km/h 3.2 km/h 47 % 0.0 mm
21:37 28.2 °C 15.8 °C 1013.8 hPa North 3.2 km/h 3.2 km/h 47 % 0.0 mm
21:42 28.0 °C 16.0 °C 1013.8 hPa NNW 3.2 km/h 3.2 km/h 48 % 0.0 mm
21:47 27.9 °C 15.9 °C 1013.8 hPa Calm   3.2 km/h 48 % 0.0 mm
21:52 27.8 °C 15.8 °C 1013.8 hPa Calm   3.2 km/h 48 % 0.0 mm
21:57 27.5 °C 15.8 °C 1013.8 hPa Calm   3.2 km/h 49 % 0.0 mm
22:02 27.1 °C 16.1 °C 1013.8 hPa Calm   3.2 km/h 51 % 0.0 mm
22:07 26.5 °C 15.5 °C 1013.8 hPa Calm     51 % 0.0 mm
22:12 26.2 °C 15.9 °C 1013.8 hPa Calm     53 % 0.0 mm
22:17 26.2 °C 15.9 °C 1013.8 hPa Calm     53 % 0.0 mm
22:22 26.2 °C 15.6 °C 1013.8 hPa Calm     52 % 0.0 mm
22:27 26.0 °C 16.0 °C 1013.8 hPa Calm     54 % 0.0 mm
22:32 25.6 °C 15.9 °C 1013.8 hPa Calm     55 % 0.0 mm
22:37 25.4 °C 15.7 °C 1013.8 hPa Calm     55 % 0.0 mm
22:42 25.2 °C 15.8 °C 1013.8 hPa Calm     56 % 0.0 mm
22:47 25.0 °C 15.6 °C 1013.8 hPa Calm   6.4 km/h 56 % 0.0 mm
22:52 24.7 °C 15.3 °C 1013.8 hPa WNW 3.2 km/h 6.4 km/h 56 % 0.0 mm
22:57 24.6 °C 16.1 °C 1013.8 hPa WNW 3.2 km/h 4.8 km/h 59 % 0.0 mm
23:02 24.5 °C 16.0 °C 1013.8 hPa WNW 1.6 km/h 4.8 km/h 59 % 0.0 mm
23:12 24.5 °C 16.0 °C 1013.8 hPa WNW 1.6 km/h 4.8 km/h 59 % 0.0 mm
23:17 24.6 °C 16.1 °C 1013.8 hPa Calm   4.8 km/h 59 % 0.0 mm
23:22 24.6 °C 16.3 °C 1014.1 hPa Calm   4.8 km/h 60 % 0.0 mm
23:27 24.2 °C 15.9 °C 1013.8 hPa Calm   1.6 km/h 60 % 0.0 mm
23:42 23.8 °C 16.3 °C 1014.1 hPa Calm     63 % 0.0 mm
23:52 23.8 °C 16.1 °C 1014.1 hPa NW 1.6 km/h   62 % 0.0 mm
23:57 23.6 °C 15.9 °C 1014.1 hPa Calm   1.6 km/h 62 % 0.0 mm
Meteo18
Compliments of Weather Underground - 4 mb

Script developed by  Jim McMurry - jmcmurry@mwt.net Adapted for the template by  Wim van der Kuil - Leuven-Template.eu

You find our weather info also at:

European Weather Network

Weather Underground

Equipment we use:

Weather-station
Davis Vue

Weather-program
Meteohub

Weather-server
Raspberry PI 2 B+

Provider
1 and 1

Davis Vue

Meteohub

Raspberry PI 2 B+

1 and 1